ルアンダ の空港の天気 - METARとTAF

ルアンダ国際空港 ( FNLU / LAD ) - アンゴラ ルアンダ
飛行場実況気象(Metar)
観測時間05/28 23:00 WAT (05/28 22:00 UTC)
風向・風速南南東 3m/s
視程10km以上
天気現象
少しの雲 雲底高度 610m
気温23℃
湿度83%
気圧1014hPa
METARFNLU 282200Z 16005KT 9999 FEW020 23/20 Q1014 NOSIG
過去の天気等 Google飛行場航空写真 Wunderground天気予報

過去48時間のMETAR

飛行場予報(TAF)
発表時間: 5/28 23:45 WAT (5/28 22:45 UTC)
予報対象時間: 29日1時 WAT ~ 30日7時 WAT
風向・風速南 3m/s
視程9000m
少しの雲 雲底高度 550m
29日5時 WAT ~ 29日9時 WAT に一時的に
風向・風速不定 2m/s
視程5000m
天気現象もや
29日10時 WAT ~ 29日12時 WAT に徐々に
風向・風速西南西 5m/s
視程10km以上
全天の8割程度の雲 雲底高度 610m
TAF FNLU 282245Z 2900/3006 19005KT 9000 FEW018
TEMPO 2904/2908 VRB03KT 5000 BR
BECMG 2909/2911 25009KT 9999 BKN020